sensor_id;sensor_type;location;lat;lon;timestamp;P1;durP1;ratioP1;P2;durP2;ratioP2
64011;SDS011;50211;52.768;12.124;2023-07-13T00:01:58;2.05;;;1.85;;
64011;SDS011;50211;52.768;12.124;2023-07-13T00:04:24;2.83;;;2.20;;
64011;SDS011;50211;52.768;12.124;2023-07-13T00:06:50;3.22;;;1.70;;
64011;SDS011;50211;52.768;12.124;2023-07-13T00:09:17;1.70;;;1.60;;
64011;SDS011;50211;52.768;12.124;2023-07-13T00:11:44;3.95;;;2.03;;
64011;SDS011;50211;52.768;12.124;2023-07-13T00:14:12;3.70;;;1.90;;
64011;SDS011;50211;52.768;12.124;2023-07-13T00:16:38;3.03;;;1.95;;
64011;SDS011;50211;52.768;12.124;2023-07-13T00:19:08;3.20;;;1.90;;
64011;SDS011;50211;52.768;12.124;2023-07-13T00:21:34;3.72;;;2.20;;
64011;SDS011;50211;52.768;12.124;2023-07-13T00:23:59;5.03;;;2.22;;
64011;SDS011;50211;52.768;12.124;2023-07-13T00:26:26;4.57;;;2.13;;
64011;SDS011;50211;52.768;12.124;2023-07-13T00:28:51;4.95;;;2.13;;
64011;SDS011;50211;52.768;12.124;2023-07-13T00:31:17;4.20;;;2.65;;
64011;SDS011;50211;52.768;12.124;2023-07-13T00:33:43;5.05;;;2.38;;
64011;SDS011;50211;52.768;12.124;2023-07-13T00:36:09;4.70;;;2.83;;
64011;SDS011;50211;52.768;12.124;2023-07-13T00:38:35;5.78;;;2.40;;
64011;SDS011;50211;52.768;12.124;2023-07-13T00:41:02;2.90;;;2.40;;
64011;SDS011;50211;52.768;12.124;2023-07-13T00:43:28;3.92;;;2.35;;
64011;SDS011;50211;52.768;12.124;2023-07-13T00:48:37;2.90;;;2.67;;
64011;SDS011;50211;52.768;12.124;2023-07-13T00:51:03;3.53;;;2.65;;
64011;SDS011;50211;52.768;12.124;2023-07-13T00:53:29;7.07;;;2.88;;
64011;SDS011;50211;52.768;12.124;2023-07-13T00:55:57;4.18;;;2.85;;
64011;SDS011;50211;52.768;12.124;2023-07-13T00:58:24;5.95;;;2.70;;
64011;SDS011;50211;52.768;12.124;2023-07-13T01:00:51;4.22;;;2.60;;
64011;SDS011;50211;52.768;12.124;2023-07-13T01:03:17;3.65;;;2.72;;
64011;SDS011;50211;52.768;12.124;2023-07-13T01:05:43;4.10;;;2.40;;
64011;SDS011;50211;52.768;12.124;2023-07-13T01:08:13;11.57;;;2.40;;
64011;SDS011;50211;52.768;12.124;2023-07-13T01:10:39;7.65;;;3.13;;
64011;SDS011;50211;52.768;12.124;2023-07-13T01:13:05;6.93;;;2.95;;
64011;SDS011;50211;52.768;12.124;2023-07-13T01:18:00;7.55;;;2.95;;
64011;SDS011;50211;52.768;12.124;2023-07-13T01:20:27;4.28;;;3.33;;
64011;SDS011;50211;52.768;12.124;2023-07-13T01:22:52;9.32;;;2.92;;
64011;SDS011;50211;52.768;12.124;2023-07-13T01:25:18;2.83;;;2.20;;
64011;SDS011;50211;52.768;12.124;2023-07-13T01:27:45;5.97;;;2.80;;
64011;SDS011;50211;52.768;12.124;2023-07-13T01:30:11;6.28;;;3.13;;
64011;SDS011;50211;52.768;12.124;2023-07-13T01:32:37;7.68;;;2.90;;
64011;SDS011;50211;52.768;12.124;2023-07-13T01:35:04;4.57;;;2.83;;
64011;SDS011;50211;52.768;12.124;2023-07-13T01:37:30;5.72;;;2.47;;
64011;SDS011;50211;52.768;12.124;2023-07-13T01:39:58;6.25;;;2.88;;
64011;SDS011;50211;52.768;12.124;2023-07-13T01:42:24;5.13;;;3.10;;
64011;SDS011;50211;52.768;12.124;2023-07-13T01:44:49;5.95;;;2.95;;
64011;SDS011;50211;52.768;12.124;2023-07-13T01:47:15;10.50;;;3.40;;
64011;SDS011;50211;52.768;12.124;2023-07-13T01:49:41;6.78;;;2.95;;
64011;SDS011;50211;52.768;12.124;2023-07-13T01:52:06;5.25;;;3.33;;
64011;SDS011;50211;52.768;12.124;2023-07-13T01:54:32;6.43;;;3.22;;
64011;SDS011;50211;52.768;12.124;2023-07-13T01:56:58;4.55;;;3.00;;
64011;SDS011;50211;52.768;12.124;2023-07-13T01:59:24;8.30;;;3.17;;
64011;SDS011;50211;52.768;12.124;2023-07-13T02:01:50;2.88;;;2.50;;
64011;SDS011;50211;52.768;12.124;2023-07-13T02:04:15;3.22;;;2.60;;
64011;SDS011;50211;52.768;12.124;2023-07-13T02:06:41;5.15;;;2.60;;
64011;SDS011;50211;52.768;12.124;2023-07-13T02:09:06;3.83;;;2.55;;
64011;SDS011;50211;52.768;12.124;2023-07-13T02:11:32;5.57;;;2.67;;
64011;SDS011;50211;52.768;12.124;2023-07-13T02:14:01;4.25;;;2.70;;
64011;SDS011;50211;52.768;12.124;2023-07-13T02:16:27;3.83;;;2.90;;
64011;SDS011;50211;52.768;12.124;2023-07-13T02:18:54;8.15;;;3.05;;
64011;SDS011;50211;52.768;12.124;2023-07-13T02:21:20;4.57;;;2.72;;
64011;SDS011;50211;52.768;12.124;2023-07-13T02:23:47;4.60;;;2.67;;
64011;SDS011;50211;52.768;12.124;2023-07-13T02:26:12;4.18;;;2.95;;
64011;SDS011;50211;52.768;12.124;2023-07-13T02:28:38;5.25;;;2.80;;
64011;SDS011;50211;52.768;12.124;2023-07-13T02:31:13;4.38;;;3.10;;
64011;SDS011;50211;52.768;12.124;2023-07-13T02:33:40;6.53;;;3.08;;
64011;SDS011;50211;52.768;12.124;2023-07-13T02:36:06;7.05;;;3.10;;
64011;SDS011;50211;52.768;12.124;2023-07-13T02:38:32;4.70;;;2.80;;
64011;SDS011;50211;52.768;12.124;2023-07-13T02:40:58;3.45;;;2.63;;
64011;SDS011;50211;52.768;12.124;2023-07-13T02:43:24;6.32;;;2.88;;
64011;SDS011;50211;52.768;12.124;2023-07-13T02:45:50;5.18;;;2.88;;
64011;SDS011;50211;52.768;12.124;2023-07-13T02:48:16;4.63;;;2.50;;
64011;SDS011;50211;52.768;12.124;2023-07-13T02:50:42;4.35;;;2.85;;
64011;SDS011;50211;52.768;12.124;2023-07-13T02:53:09;4.20;;;3.03;;
64011;SDS011;50211;52.768;12.124;2023-07-13T02:55:34;7.93;;;3.30;;
64011;SDS011;50211;52.768;12.124;2023-07-13T02:58:00;6.22;;;2.88;;
64011;SDS011;50211;52.768;12.124;2023-07-13T03:00:26;3.67;;;3.10;;
64011;SDS011;50211;52.768;12.124;2023-07-13T03:02:52;4.75;;;3.22;;
64011;SDS011;50211;52.768;12.124;2023-07-13T03:05:18;5.68;;;2.75;;
64011;SDS011;50211;52.768;12.124;2023-07-13T03:07:44;6.47;;;3.00;;
64011;SDS011;50211;52.768;12.124;2023-07-13T03:10:09;4.78;;;2.63;;
64011;SDS011;50211;52.768;12.124;2023-07-13T03:12:35;3.53;;;2.72;;
64011;SDS011;50211;52.768;12.124;2023-07-13T03:15:00;5.35;;;3.20;;
64011;SDS011;50211;52.768;12.124;2023-07-13T03:17:26;7.15;;;3.30;;
64011;SDS011;50211;52.768;12.124;2023-07-13T03:19:51;6.70;;;3.63;;
64011;SDS011;50211;52.768;12.124;2023-07-13T03:22:17;4.38;;;3.20;;
64011;SDS011;50211;52.768;12.124;2023-07-13T03:24:43;8.32;;;2.83;;
64011;SDS011;50211;52.768;12.124;2023-07-13T03:27:09;5.68;;;3.00;;
64011;SDS011;50211;52.768;12.124;2023-07-13T03:29:35;5.15;;;2.80;;
64011;SDS011;50211;52.768;12.124;2023-07-13T03:32:00;6.13;;;2.80;;
64011;SDS011;50211;52.768;12.124;2023-07-13T03:34:26;3.70;;;2.97;;
64011;SDS011;50211;52.768;12.124;2023-07-13T03:36:53;6.22;;;3.08;;
64011;SDS011;50211;52.768;12.124;2023-07-13T03:39:20;5.07;;;2.40;;
64011;SDS011;50211;52.768;12.124;2023-07-13T03:41:45;3.20;;;2.83;;
64011;SDS011;50211;52.768;12.124;2023-07-13T03:44:11;2.60;;;2.40;;
64011;SDS011;50211;52.768;12.124;2023-07-13T03:46:37;4.28;;;2.78;;
64011;SDS011;50211;52.768;12.124;2023-07-13T03:49:03;3.13;;;2.65;;
64011;SDS011;50211;52.768;12.124;2023-07-13T03:51:30;4.75;;;2.70;;
64011;SDS011;50211;52.768;12.124;2023-07-13T03:53:55;4.68;;;2.65;;
64011;SDS011;50211;52.768;12.124;2023-07-13T03:56:21;3.60;;;3.10;;
64011;SDS011;50211;52.768;12.124;2023-07-13T03:58:48;4.05;;;2.97;;
64011;SDS011;50211;52.768;12.124;2023-07-13T04:01:15;7.50;;;3.45;;
64011;SDS011;50211;52.768;12.124;2023-07-13T04:03:42;5.40;;;2.92;;
64011;SDS011;50211;52.768;12.124;2023-07-13T04:06:12;3.83;;;3.03;;
64011;SDS011;50211;52.768;12.124;2023-07-13T04:08:40;5.80;;;3.10;;
64011;SDS011;50211;52.768;12.124;2023-07-13T04:11:06;5.35;;;3.15;;
64011;SDS011;50211;52.768;12.124;2023-07-13T04:13:32;5.93;;;3.08;;
64011;SDS011;50211;52.768;12.124;2023-07-13T04:15:57;5.93;;;3.47;;
64011;SDS011;50211;52.768;12.124;2023-07-13T04:18:23;5.65;;;3.45;;
64011;SDS011;50211;52.768;12.124;2023-07-13T04:20:48;4.28;;;3.10;;
64011;SDS011;50211;52.768;12.124;2023-07-13T04:23:15;5.95;;;3.72;;
64011;SDS011;50211;52.768;12.124;2023-07-13T04:25:47;8.07;;;3.10;;
64011;SDS011;50211;52.768;12.124;2023-07-13T04:28:15;4.20;;;3.30;;
64011;SDS011;50211;52.768;12.124;2023-07-13T04:30:41;6.15;;;3.90;;
64011;SDS011;50211;52.768;12.124;2023-07-13T04:33:07;6.60;;;3.55;;
64011;SDS011;50211;52.768;12.124;2023-07-13T04:35:33;6.05;;;3.55;;
64011;SDS011;50211;52.768;12.124;2023-07-13T04:37:59;5.65;;;3.88;;
64011;SDS011;50211;52.768;12.124;2023-07-13T04:40:26;8.32;;;3.40;;
64011;SDS011;50211;52.768;12.124;2023-07-13T04:42:52;6.32;;;3.60;;
64011;SDS011;50211;52.768;12.124;2023-07-13T04:45:18;5.85;;;3.55;;
64011;SDS011;50211;52.768;12.124;2023-07-13T04:47:43;6.68;;;3.83;;
64011;SDS011;50211;52.768;12.124;2023-07-13T04:50:09;4.45;;;3.15;;
64011;SDS011;50211;52.768;12.124;2023-07-13T04:52:36;5.18;;;3.50;;
64011;SDS011;50211;52.768;12.124;2023-07-13T04:55:01;6.60;;;3.47;;
64011;SDS011;50211;52.768;12.124;2023-07-13T04:57:27;8.60;;;4.07;;
64011;SDS011;50211;52.768;12.124;2023-07-13T04:59:53;5.88;;;3.90;;
64011;SDS011;50211;52.768;12.124;2023-07-13T05:02:22;8.10;;;3.33;;
64011;SDS011;50211;52.768;12.124;2023-07-13T05:04:47;9.13;;;4.13;;
64011;SDS011;50211;52.768;12.124;2023-07-13T05:07:13;5.80;;;3.13;;
64011;SDS011;50211;52.768;12.124;2023-07-13T05:09:38;6.80;;;3.08;;
64011;SDS011;50211;52.768;12.124;2023-07-13T05:12:05;5.85;;;3.45;;
64011;SDS011;50211;52.768;12.124;2023-07-13T05:14:31;4.28;;;3.17;;
64011;SDS011;50211;52.768;12.124;2023-07-13T05:16:57;4.10;;;3.38;;
64011;SDS011;50211;52.768;12.124;2023-07-13T05:19:23;4.90;;;3.22;;
64011;SDS011;50211;52.768;12.124;2023-07-13T05:21:48;5.43;;;3.50;;
64011;SDS011;50211;52.768;12.124;2023-07-13T05:24:14;9.27;;;3.38;;
64011;SDS011;50211;52.768;12.124;2023-07-13T05:26:39;6.20;;;3.10;;
64011;SDS011;50211;52.768;12.124;2023-07-13T05:29:05;6.55;;;3.33;;
64011;SDS011;50211;52.768;12.124;2023-07-13T05:31:30;5.60;;;3.15;;
64011;SDS011;50211;52.768;12.124;2023-07-13T05:33:56;7.30;;;3.30;;
64011;SDS011;50211;52.768;12.124;2023-07-13T05:36:21;3.75;;;2.85;;
64011;SDS011;50211;52.768;12.124;2023-07-13T05:38:47;3.70;;;2.90;;
64011;SDS011;50211;52.768;12.124;2023-07-13T05:41:12;4.97;;;2.97;;
64011;SDS011;50211;52.768;12.124;2023-07-13T05:43:38;3.85;;;2.63;;
64011;SDS011;50211;52.768;12.124;2023-07-13T05:46:03;5.20;;;2.92;;
64011;SDS011;50211;52.768;12.124;2023-07-13T05:48:29;3.22;;;2.40;;
64011;SDS011;50211;52.768;12.124;2023-07-13T05:50:54;5.68;;;2.85;;
64011;SDS011;50211;52.768;12.124;2023-07-13T05:53:20;4.63;;;2.42;;
64011;SDS011;50211;52.768;12.124;2023-07-13T05:55:46;7.97;;;2.30;;
64011;SDS011;50211;52.768;12.124;2023-07-13T05:58:16;5.68;;;2.70;;
64011;SDS011;50211;52.768;12.124;2023-07-13T06:00:42;5.38;;;2.40;;
64011;SDS011;50211;52.768;12.124;2023-07-13T06:03:07;6.13;;;2.63;;
64011;SDS011;50211;52.768;12.124;2023-07-13T06:05:33;8.38;;;2.80;;
64011;SDS011;50211;52.768;12.124;2023-07-13T06:08:01;3.40;;;2.60;;
64011;SDS011;50211;52.768;12.124;2023-07-13T06:10:27;6.15;;;2.92;;
64011;SDS011;50211;52.768;12.124;2023-07-13T06:12:53;5.88;;;2.55;;
64011;SDS011;50211;52.768;12.124;2023-07-13T06:15:19;5.55;;;2.60;;
64011;SDS011;50211;52.768;12.124;2023-07-13T06:17:44;4.10;;;2.42;;
64011;SDS011;50211;52.768;12.124;2023-07-13T06:20:10;3.25;;;2.70;;
64011;SDS011;50211;52.768;12.124;2023-07-13T06:22:35;5.25;;;2.35;;
64011;SDS011;50211;52.768;12.124;2023-07-13T06:25:01;3.97;;;2.25;;
64011;SDS011;50211;52.768;12.124;2023-07-13T06:27:27;3.83;;;2.00;;
64011;SDS011;50211;52.768;12.124;2023-07-13T06:29:52;4.38;;;2.30;;
64011;SDS011;50211;52.768;12.124;2023-07-13T06:32:17;3.45;;;2.45;;
64011;SDS011;50211;52.768;12.124;2023-07-13T06:34:43;4.50;;;1.85;;
64011;SDS011;50211;52.768;12.124;2023-07-13T06:37:09;5.03;;;2.20;;
64011;SDS011;50211;52.768;12.124;2023-07-13T06:39:35;1.90;;;1.67;;
64011;SDS011;50211;52.768;12.124;2023-07-13T06:42:00;5.40;;;2.00;;
64011;SDS011;50211;52.768;12.124;2023-07-13T06:44:26;4.40;;;1.50;;
64011;SDS011;50211;52.768;12.124;2023-07-13T06:46:51;10.23;;;2.00;;
64011;SDS011;50211;52.768;12.124;2023-07-13T06:49:17;4.40;;;2.10;;
64011;SDS011;50211;52.768;12.124;2023-07-13T06:51:42;3.45;;;1.90;;
64011;SDS011;50211;52.768;12.124;2023-07-13T06:54:08;4.80;;;1.95;;
64011;SDS011;50211;52.768;12.124;2023-07-13T06:56:33;3.70;;;1.63;;
64011;SDS011;50211;52.768;12.124;2023-07-13T06:58:59;4.20;;;1.92;;
64011;SDS011;50211;52.768;12.124;2023-07-13T07:01:24;3.72;;;1.60;;
64011;SDS011;50211;52.768;12.124;2023-07-13T07:03:50;5.50;;;1.80;;
64011;SDS011;50211;52.768;12.124;2023-07-13T07:06:16;4.45;;;1.67;;
64011;SDS011;50211;52.768;12.124;2023-07-13T07:08:44;4.03;;;1.60;;
64011;SDS011;50211;52.768;12.124;2023-07-13T07:11:15;3.85;;;1.90;;
64011;SDS011;50211;52.768;12.124;2023-07-13T07:13:43;3.63;;;1.90;;
64011;SDS011;50211;52.768;12.124;2023-07-13T07:16:08;5.70;;;1.90;;
64011;SDS011;50211;52.768;12.124;2023-07-13T07:18:34;3.28;;;1.90;;
64011;SDS011;50211;52.768;12.124;2023-07-13T07:21:00;8.38;;;2.38;;
64011;SDS011;50211;52.768;12.124;2023-07-13T07:23:26;2.83;;;2.15;;
64011;SDS011;50211;52.768;12.124;2023-07-13T07:25:51;4.18;;;2.15;;
64011;SDS011;50211;52.768;12.124;2023-07-13T07:28:17;4.28;;;1.90;;
64011;SDS011;50211;52.768;12.124;2023-07-13T07:30:44;6.70;;;2.15;;
64011;SDS011;50211;52.768;12.124;2023-07-13T07:33:10;8.00;;;2.25;;
64011;SDS011;50211;52.768;12.124;2023-07-13T07:35:35;6.80;;;2.22;;
64011;SDS011;50211;52.768;12.124;2023-07-13T07:38:01;4.07;;;2.00;;
64011;SDS011;50211;52.768;12.124;2023-07-13T07:40:27;5.40;;;2.40;;
64011;SDS011;50211;52.768;12.124;2023-07-13T07:42:52;6.65;;;2.53;;
64011;SDS011;50211;52.768;12.124;2023-07-13T07:45:18;6.68;;;2.10;;
64011;SDS011;50211;52.768;12.124;2023-07-13T07:47:44;4.28;;;2.45;;
64011;SDS011;50211;52.768;12.124;2023-07-13T07:50:10;4.43;;;2.33;;
64011;SDS011;50211;52.768;12.124;2023-07-13T07:52:36;6.13;;;2.30;;
64011;SDS011;50211;52.768;12.124;2023-07-13T07:55:01;4.88;;;2.47;;
64011;SDS011;50211;52.768;12.124;2023-07-13T07:57:28;6.82;;;1.73;;
64011;SDS011;50211;52.768;12.124;2023-07-13T07:59:54;5.82;;;2.10;;
64011;SDS011;50211;52.768;12.124;2023-07-13T08:02:19;4.63;;;1.90;;
64011;SDS011;50211;52.768;12.124;2023-07-13T08:04:45;3.60;;;1.80;;
64011;SDS011;50211;52.768;12.124;2023-07-13T08:07:10;5.78;;;2.20;;
64011;SDS011;50211;52.768;12.124;2023-07-13T08:09:36;3.33;;;2.22;;
64011;SDS011;50211;52.768;12.124;2023-07-13T08:12:01;5.35;;;2.80;;
64011;SDS011;50211;52.768;12.124;2023-07-13T08:14:27;5.07;;;2.50;;
64011;SDS011;50211;52.768;12.124;2023-07-13T08:16:52;7.18;;;2.17;;
64011;SDS011;50211;52.768;12.124;2023-07-13T08:19:18;6.07;;;2.40;;
64011;SDS011;50211;52.768;12.124;2023-07-13T08:21:44;6.55;;;2.45;;
64011;SDS011;50211;52.768;12.124;2023-07-13T08:24:09;6.70;;;2.60;;
64011;SDS011;50211;52.768;12.124;2023-07-13T08:26:35;4.45;;;2.40;;
64011;SDS011;50211;52.768;12.124;2023-07-13T08:29:00;5.45;;;2.20;;
64011;SDS011;50211;52.768;12.124;2023-07-13T08:31:27;6.78;;;2.25;;
64011;SDS011;50211;52.768;12.124;2023-07-13T08:33:52;4.63;;;1.80;;
64011;SDS011;50211;52.768;12.124;2023-07-13T08:36:18;7.18;;;3.03;;
64011;SDS011;50211;52.768;12.124;2023-07-13T08:38:43;17.13;;;2.90;;
64011;SDS011;50211;52.768;12.124;2023-07-13T08:41:10;7.25;;;2.13;;
64011;SDS011;50211;52.768;12.124;2023-07-13T08:43:38;8.00;;;2.10;;
64011;SDS011;50211;52.768;12.124;2023-07-13T08:46:19;3.00;;;1.48;;
64011;SDS011;50211;52.768;12.124;2023-07-13T08:48:53;3.03;;;1.50;;
64011;SDS011;50211;52.768;12.124;2023-07-13T08:51:28;4.45;;;1.40;;
64011;SDS011;50211;52.768;12.124;2023-07-13T08:54:11;3.13;;;1.45;;
64011;SDS011;50211;52.768;12.124;2023-07-13T08:57:03;4.20;;;1.33;;
64011;SDS011;50211;52.768;12.124;2023-07-13T08:59:37;3.17;;;1.70;;
64011;SDS011;50211;52.768;12.124;2023-07-13T09:05:08;4.88;;;1.30;;
64011;SDS011;50211;52.768;12.124;2023-07-13T09:07:48;5.13;;;1.50;;
64011;SDS011;50211;52.768;12.124;2023-07-13T09:10:21;4.70;;;1.25;;
64011;SDS011;50211;52.768;12.124;2023-07-13T09:12:58;5.75;;;1.42;;
64011;SDS011;50211;52.768;12.124;2023-07-13T09:15:46;7.82;;;1.60;;
64011;SDS011;50211;52.768;12.124;2023-07-13T09:18:14;6.40;;;1.60;;
64011;SDS011;50211;52.768;12.124;2023-07-13T09:20:46;6.00;;;1.98;;
64011;SDS011;50211;52.768;12.124;2023-07-13T09:23:19;5.80;;;1.63;;
64011;SDS011;50211;52.768;12.124;2023-07-13T09:25:48;5.28;;;2.00;;
64011;SDS011;50211;52.768;12.124;2023-07-13T09:28:24;5.32;;;1.67;;
64011;SDS011;50211;52.768;12.124;2023-07-13T09:33:38;5.28;;;1.70;;
64011;SDS011;50211;52.768;12.124;2023-07-13T09:36:25;7.30;;;2.45;;
64011;SDS011;50211;52.768;12.124;2023-07-13T09:39:02;6.25;;;2.35;;
64011;SDS011;50211;52.768;12.124;2023-07-13T09:41:43;6.88;;;2.63;;
64011;SDS011;50211;52.768;12.124;2023-07-13T09:44:19;3.08;;;1.77;;
64011;SDS011;50211;52.768;12.124;2023-07-13T09:46:53;7.03;;;2.22;;
64011;SDS011;50211;52.768;12.124;2023-07-13T09:49:23;7.32;;;2.53;;
64011;SDS011;50211;52.768;12.124;2023-07-13T09:51:57;7.03;;;2.50;;
64011;SDS011;50211;52.768;12.124;2023-07-13T09:54:28;5.88;;;2.30;;
64011;SDS011;50211;52.768;12.124;2023-07-13T09:56:54;7.05;;;2.17;;
64011;SDS011;50211;52.768;12.124;2023-07-13T09:59:22;5.10;;;1.90;;
64011;SDS011;50211;52.768;12.124;2023-07-13T10:01:49;6.03;;;2.10;;
64011;SDS011;50211;52.768;12.124;2023-07-13T10:04:17;4.05;;;1.90;;
64011;SDS011;50211;52.768;12.124;2023-07-13T10:06:44;5.15;;;2.08;;
64011;SDS011;50211;52.768;12.124;2023-07-13T10:09:14;8.85;;;2.97;;
64011;SDS011;50211;52.768;12.124;2023-07-13T10:11:41;5.55;;;2.15;;
64011;SDS011;50211;52.768;12.124;2023-07-13T10:14:11;3.78;;;2.58;;
64011;SDS011;50211;52.768;12.124;2023-07-13T10:16:43;6.38;;;2.47;;
64011;SDS011;50211;52.768;12.124;2023-07-13T10:19:12;2.97;;;2.40;;
64011;SDS011;50211;52.768;12.124;2023-07-13T10:21:55;6.85;;;2.65;;
64011;SDS011;50211;52.768;12.124;2023-07-13T10:24:28;7.68;;;2.70;;
64011;SDS011;50211;52.768;12.124;2023-07-13T10:27:02;4.65;;;2.47;;
64011;SDS011;50211;52.768;12.124;2023-07-13T10:29:38;6.10;;;2.45;;
64011;SDS011;50211;52.768;12.124;2023-07-13T10:32:12;3.22;;;1.92;;
64011;SDS011;50211;52.768;12.124;2023-07-13T10:34:39;4.85;;;2.50;;
64011;SDS011;50211;52.768;12.124;2023-07-13T10:37:07;3.75;;;2.20;;
64011;SDS011;50211;52.768;12.124;2023-07-13T10:39:42;6.07;;;2.35;;
64011;SDS011;50211;52.768;12.124;2023-07-13T10:42:08;4.80;;;2.10;;
64011;SDS011;50211;52.768;12.124;2023-07-13T10:44:38;6.70;;;1.83;;
64011;SDS011;50211;52.768;12.124;2023-07-13T10:47:05;7.22;;;1.92;;
64011;SDS011;50211;52.768;12.124;2023-07-13T10:49:36;4.28;;;1.80;;
64011;SDS011;50211;52.768;12.124;2023-07-13T10:52:02;7.85;;;2.47;;
64011;SDS011;50211;52.768;12.124;2023-07-13T10:54:34;3.03;;;1.60;;
64011;SDS011;50211;52.768;12.124;2023-07-13T10:59:46;7.10;;;2.25;;
64011;SDS011;50211;52.768;12.124;2023-07-13T11:02:34;3.45;;;1.58;;
64011;SDS011;50211;52.768;12.124;2023-07-13T11:05:01;5.10;;;1.80;;
64011;SDS011;50211;52.768;12.124;2023-07-13T11:08:03;3.80;;;1.48;;
64011;SDS011;50211;52.768;12.124;2023-07-13T11:10:49;4.25;;;1.70;;
64011;SDS011;50211;52.768;12.124;2023-07-13T11:16:12;1.70;;;1.10;;
64011;SDS011;50211;52.768;12.124;2023-07-13T11:18:39;4.68;;;1.40;;
64011;SDS011;50211;52.768;12.124;2023-07-13T11:21:20;3.95;;;1.40;;
64011;SDS011;50211;52.768;12.124;2023-07-13T11:24:03;6.80;;;1.65;;
64011;SDS011;50211;52.768;12.124;2023-07-13T11:26:41;5.38;;;0.98;;
64011;SDS011;50211;52.768;12.124;2023-07-13T11:29:17;4.95;;;1.52;;
64011;SDS011;50211;52.768;12.124;2023-07-13T11:31:56;6.45;;;1.63;;
64011;SDS011;50211;52.768;12.124;2023-07-13T11:34:25;4.00;;;1.50;;
64011;SDS011;50211;52.768;12.124;2023-07-13T11:36:55;2.97;;;1.48;;
64011;SDS011;50211;52.768;12.124;2023-07-13T11:39:25;3.88;;;1.02;;
64011;SDS011;50211;52.768;12.124;2023-07-13T11:42:09;3.70;;;1.40;;
64011;SDS011;50211;52.768;12.124;2023-07-13T11:44:41;4.28;;;1.60;;
64011;SDS011;50211;52.768;12.124;2023-07-13T11:47:10;4.93;;;1.90;;
64011;SDS011;50211;52.768;12.124;2023-07-13T11:49:43;5.22;;;1.90;;
64011;SDS011;50211;52.768;12.124;2023-07-13T11:52:13;2.45;;;1.02;;
64011;SDS011;50211;52.768;12.124;2023-07-13T11:57:33;1.80;;;1.30;;
64011;SDS011;50211;52.768;12.124;2023-07-13T12:00:09;2.20;;;1.20;;
64011;SDS011;50211;52.768;12.124;2023-07-13T12:02:40;2.30;;;1.63;;
64011;SDS011;50211;52.768;12.124;2023-07-13T12:05:13;2.47;;;1.20;;
64011;SDS011;50211;52.768;12.124;2023-07-13T12:07:40;1.85;;;1.15;;
64011;SDS011;50211;52.768;12.124;2023-07-13T12:12:37;3.80;;;1.13;;
64011;SDS011;50211;52.768;12.124;2023-07-13T12:15:10;3.80;;;1.30;;
64011;SDS011;50211;52.768;12.124;2023-07-13T12:17:36;1.17;;;1.02;;
64011;SDS011;50211;52.768;12.124;2023-07-13T12:20:03;2.08;;;1.17;;
64011;SDS011;50211;52.768;12.124;2023-07-13T12:22:49;7.63;;;1.75;;
64011;SDS011;50211;52.768;12.124;2023-07-13T12:25:15;2.60;;;1.23;;
64011;SDS011;50211;52.768;12.124;2023-07-13T12:27:42;3.15;;;1.50;;
64011;SDS011;50211;52.768;12.124;2023-07-13T12:30:31;3.90;;;1.30;;
64011;SDS011;50211;52.768;12.124;2023-07-13T12:33:08;3.08;;;1.35;;
64011;SDS011;50211;52.768;12.124;2023-07-13T12:35:41;2.72;;;1.40;;
64011;SDS011;50211;52.768;12.124;2023-07-13T12:38:11;3.25;;;1.42;;
64011;SDS011;50211;52.768;12.124;2023-07-13T12:40:38;4.32;;;1.52;;
64011;SDS011;50211;52.768;12.124;2023-07-13T12:43:09;3.75;;;1.35;;
64011;SDS011;50211;52.768;12.124;2023-07-13T12:45:54;3.03;;;1.55;;
64011;SDS011;50211;52.768;12.124;2023-07-13T12:48:24;4.18;;;1.60;;
64011;SDS011;50211;52.768;12.124;2023-07-13T12:50:50;5.32;;;1.70;;
64011;SDS011;50211;52.768;12.124;2023-07-13T12:53:20;3.13;;;1.25;;
64011;SDS011;50211;52.768;12.124;2023-07-13T12:58:29;4.90;;;1.23;;
64011;SDS011;50211;52.768;12.124;2023-07-13T13:00:58;3.30;;;1.10;;
64011;SDS011;50211;52.768;12.124;2023-07-13T13:03:30;3.83;;;1.13;;
64011;SDS011;50211;52.768;12.124;2023-07-13T13:06:02;2.13;;;1.42;;
64011;SDS011;50211;52.768;12.124;2023-07-13T13:09:09;5.07;;;1.20;;
64011;SDS011;50211;52.768;12.124;2023-07-13T13:11:38;3.90;;;1.35;;
64011;SDS011;50211;52.768;12.124;2023-07-13T13:14:05;3.83;;;1.23;;
64011;SDS011;50211;52.768;12.124;2023-07-13T13:16:32;2.53;;;0.80;;
64011;SDS011;50211;52.768;12.124;2023-07-13T13:19:02;3.55;;;1.10;;
64011;SDS011;50211;52.768;12.124;2023-07-13T13:21:35;3.15;;;1.05;;
64011;SDS011;50211;52.768;12.124;2023-07-13T13:24:00;2.03;;;1.00;;
64011;SDS011;50211;52.768;12.124;2023-07-13T13:26:26;3.83;;;1.20;;
64011;SDS011;50211;52.768;12.124;2023-07-13T13:28:51;4.30;;;1.38;;
64011;SDS011;50211;52.768;12.124;2023-07-13T13:31:17;2.42;;;1.30;;
64011;SDS011;50211;52.768;12.124;2023-07-13T13:33:44;2.17;;;1.05;;
64011;SDS011;50211;52.768;12.124;2023-07-13T13:36:18;1.25;;;1.00;;
64011;SDS011;50211;52.768;12.124;2023-07-13T13:38:45;2.50;;;1.00;;
64011;SDS011;50211;52.768;12.124;2023-07-13T13:41:13;7.78;;;1.20;;
64011;SDS011;50211;52.768;12.124;2023-07-13T13:43:40;5.97;;;0.95;;
64011;SDS011;50211;52.768;12.124;2023-07-13T13:46:19;3.72;;;1.10;;
64011;SDS011;50211;52.768;12.124;2023-07-13T13:48:47;1.55;;;1.00;;
64011;SDS011;50211;52.768;12.124;2023-07-13T13:51:15;3.22;;;1.15;;
64011;SDS011;50211;52.768;12.124;2023-07-13T13:53:42;2.08;;;1.20;;
64011;SDS011;50211;52.768;12.124;2023-07-13T13:56:08;3.17;;;1.08;;
64011;SDS011;50211;52.768;12.124;2023-07-13T13:58:34;3.40;;;1.48;;
64011;SDS011;50211;52.768;12.124;2023-07-13T14:01:00;2.63;;;1.30;;
64011;SDS011;50211;52.768;12.124;2023-07-13T14:03:26;3.10;;;1.00;;
64011;SDS011;50211;52.768;12.124;2023-07-13T14:05:53;6.10;;;1.30;;
64011;SDS011;50211;52.768;12.124;2023-07-13T14:08:20;3.33;;;1.30;;
64011;SDS011;50211;52.768;12.124;2023-07-13T14:10:46;5.07;;;1.40;;
64011;SDS011;50211;52.768;12.124;2023-07-13T14:13:24;5.25;;;1.25;;
64011;SDS011;50211;52.768;12.124;2023-07-13T14:15:52;3.53;;;1.00;;
64011;SDS011;50211;52.768;12.124;2023-07-13T14:18:19;2.88;;;1.10;;
64011;SDS011;50211;52.768;12.124;2023-07-13T14:20:45;2.72;;;1.40;;
64011;SDS011;50211;52.768;12.124;2023-07-13T14:23:12;3.45;;;1.00;;
64011;SDS011;50211;52.768;12.124;2023-07-13T14:25:39;3.45;;;1.02;;
64011;SDS011;50211;52.768;12.124;2023-07-13T14:30:44;3.33;;;1.00;;
64011;SDS011;50211;52.768;12.124;2023-07-13T14:33:12;4.10;;;1.20;;
64011;SDS011;50211;52.768;12.124;2023-07-13T14:35:37;5.03;;;1.25;;
64011;SDS011;50211;52.768;12.124;2023-07-13T14:38:03;2.05;;;1.00;;
64011;SDS011;50211;52.768;12.124;2023-07-13T14:40:30;2.33;;;1.00;;
64011;SDS011;50211;52.768;12.124;2023-07-13T14:42:56;4.25;;;1.02;;
64011;SDS011;50211;52.768;12.124;2023-07-13T14:45:22;3.25;;;1.30;;
64011;SDS011;50211;52.768;12.124;2023-07-13T14:47:49;2.83;;;1.42;;
64011;SDS011;50211;52.768;12.124;2023-07-13T14:50:16;3.90;;;1.35;;
64011;SDS011;50211;52.768;12.124;2023-07-13T14:52:45;4.10;;;1.33;;
64011;SDS011;50211;52.768;12.124;2023-07-13T14:55:13;2.67;;;1.50;;
64011;SDS011;50211;52.768;12.124;2023-07-13T14:57:40;2.20;;;1.15;;
64011;SDS011;50211;52.768;12.124;2023-07-13T15:00:26;7.53;;;1.52;;
64011;SDS011;50211;52.768;12.124;2023-07-13T15:02:52;4.43;;;1.23;;
64011;SDS011;50211;52.768;12.124;2023-07-13T15:05:21;3.90;;;1.35;;
64011;SDS011;50211;52.768;12.124;2023-07-13T15:07:52;5.07;;;1.27;;